createdAt,value
2022-08-20T00:00:47.628Z,26.17
2022-08-20T00:01:47.842Z,26.21
2022-08-20T00:02:47.983Z,26.18
2022-08-20T00:03:51.709Z,26.18
2022-08-20T00:04:49.358Z,26.20
2022-08-20T00:05:48.501Z,26.18
2022-08-20T00:06:48.692Z,26.20
2022-08-20T00:07:48.865Z,26.21
2022-08-20T00:08:49.049Z,26.17
2022-08-20T00:09:49.214Z,26.21
2022-08-20T00:10:53.679Z,26.18
2022-08-20T00:11:50.568Z,26.17
2022-08-20T00:12:49.723Z,26.20
2022-08-20T00:13:49.903Z,26.20
2022-08-20T00:14:50.075Z,26.18
2022-08-20T00:15:50.252Z,26.17
2022-08-20T00:16:50.396Z,26.18
2022-08-20T00:17:50.613Z,26.17
2022-08-20T00:18:50.755Z,26.18
2022-08-20T00:19:50.905Z,26.17
2022-08-20T00:20:51.086Z,26.18
2022-08-20T00:21:51.271Z,26.14
2022-08-20T00:22:52.437Z,26.17
2022-08-20T00:23:51.645Z,26.14
2022-08-20T00:24:51.784Z,26.11
2022-08-20T00:25:51.948Z,26.13
2022-08-20T00:26:52.774Z,26.09
2022-08-20T00:27:52.303Z,26.09
2022-08-20T00:28:52.464Z,26.11
2022-08-20T00:29:52.641Z,26.08
2022-08-20T00:30:52.800Z,26.13
2022-08-20T00:31:52.981Z,26.11
2022-08-20T00:32:53.170Z,26.08
2022-08-20T00:33:53.335Z,26.13
2022-08-20T00:34:53.505Z,26.14
2022-08-20T00:35:53.671Z,26.14
2022-08-20T00:36:53.853Z,26.14
2022-08-20T00:37:57.433Z,26.13
2022-08-20T00:38:55.183Z,26.13
2022-08-20T00:39:54.401Z,26.13
2022-08-20T00:40:54.546Z,26.11
2022-08-20T00:41:54.735Z,26.14
2022-08-20T00:42:54.913Z,26.14
2022-08-20T00:43:55.086Z,26.14
2022-08-20T00:44:56.243Z,26.13
2022-08-20T00:45:55.405Z,26.11
2022-08-20T00:46:55.590Z,26.14
2022-08-20T00:47:55.889Z,26.14
2022-08-20T00:48:55.917Z,26.13
2022-08-20T00:49:56.088Z,26.09
2022-08-20T00:50:56.257Z,26.15
2022-08-20T00:51:56.450Z,26.13
2022-08-20T00:52:56.599Z,26.15
2022-08-20T00:53:56.769Z,26.15
2022-08-20T00:54:56.946Z,26.11
2022-08-20T00:55:57.110Z,26.14
2022-08-20T00:56:57.301Z,26.14
2022-08-20T00:58:01.533Z,26.13
2022-08-20T00:58:57.651Z,26.13
2022-08-20T00:59:57.823Z,26.13
2022-08-20T01:00:57.991Z,26.11
2022-08-20T01:01:58.190Z,26.11
2022-08-20T01:02:58.326Z,26.13
2022-08-20T01:03:58.502Z,26.17
2022-08-20T01:04:58.661Z,26.09
2022-08-20T01:05:58.833Z,26.14
2022-08-20T01:06:59.003Z,26.13
2022-08-20T01:07:59.194Z,26.13
2022-08-20T01:08:59.346Z,26.13
2022-08-20T01:09:59.626Z,26.13
2022-08-20T01:10:59.685Z,26.14
2022-08-20T01:11:59.882Z,26.17
2022-08-20T01:13:00.070Z,26.15
2022-08-20T01:14:00.236Z,26.14
2022-08-20T01:15:00.408Z,26.15
2022-08-20T01:16:00.579Z,26.14
2022-08-20T01:17:00.747Z,26.15
2022-08-20T01:18:00.941Z,26.15
2022-08-20T01:19:01.103Z,26.14
2022-08-20T01:20:01.272Z,26.17
2022-08-20T01:21:01.440Z,26.17
2022-08-20T01:22:01.609Z,26.13
2022-08-20T01:23:01.802Z,26.15
2022-08-20T01:24:01.952Z,26.14
2022-08-20T01:25:02.141Z,26.13
2022-08-20T01:26:02.311Z,26.14
2022-08-20T01:27:02.497Z,26.15
2022-08-20T01:28:02.669Z,26.15
2022-08-20T01:29:02.822Z,26.15
2022-08-20T01:30:06.796Z,26.13
2022-08-20T01:31:03.183Z,26.15
2022-08-20T01:32:03.345Z,26.17
2022-08-20T01:33:03.503Z,26.18
2022-08-20T01:34:03.665Z,26.17
2022-08-20T01:35:03.824Z,26.15
2022-08-20T01:36:04.005Z,26.15
2022-08-20T01:37:04.175Z,26.20
2022-08-20T01:38:04.337Z,26.18
2022-08-20T01:39:04.491Z,26.18
2022-08-20T01:40:04.719Z,26.20
2022-08-20T01:41:04.877Z,26.18
2022-08-20T01:42:05.042Z,26.20
2022-08-20T01:43:05.198Z,26.17
2022-08-20T01:44:05.378Z,26.18
2022-08-20T01:45:06.559Z,26.20
2022-08-20T01:46:05.758Z,26.21
2022-08-20T01:47:05.915Z,26.21
2022-08-20T01:48:06.080Z,26.24
2022-08-20T01:49:06.249Z,26.21
2022-08-20T01:50:07.430Z,26.21
2022-08-20T01:51:06.640Z,26.23
2022-08-20T01:52:06.801Z,26.23
2022-08-20T01:53:06.961Z,26.23
2022-08-20T01:54:07.129Z,26.21
2022-08-20T01:55:07.283Z,26.24
2022-08-20T01:56:07.458Z,26.23
2022-08-20T01:57:07.611Z,26.24
2022-08-20T01:58:07.803Z,26.25
2022-08-20T01:59:07.964Z,26.23
2022-08-20T02:00:08.145Z,26.24
2022-08-20T02:01:08.345Z,26.24
2022-08-20T02:02:08.482Z,26.23
2022-08-20T02:03:08.659Z,26.23
2022-08-20T02:04:08.825Z,26.23
2022-08-20T02:05:09.988Z,26.24
2022-08-20T02:06:09.178Z,26.21
2022-08-20T02:07:09.337Z,26.20
2022-08-20T02:08:09.511Z,26.21
2022-08-20T02:09:13.160Z,26.24
2022-08-20T02:10:10.842Z,26.25
2022-08-20T02:11:09.999Z,26.23
2022-08-20T02:12:10.171Z,26.24
2022-08-20T02:13:10.350Z,26.23
2022-08-20T02:14:10.533Z,26.21
2022-08-20T02:15:10.702Z,26.20
2022-08-20T02:16:10.870Z,26.21
2022-08-20T02:17:11.034Z,26.20
2022-08-20T02:18:11.201Z,26.24
2022-08-20T02:19:11.382Z,26.20
2022-08-20T02:20:11.562Z,26.21
2022-08-20T02:21:11.733Z,26.20
2022-08-20T02:22:11.912Z,26.21
2022-08-20T02:23:12.062Z,26.20
2022-08-20T02:24:12.247Z,26.21
2022-08-20T02:25:12.413Z,26.21
2022-08-20T02:26:12.605Z,26.20
2022-08-20T02:27:12.764Z,26.20
2022-08-20T02:28:12.955Z,26.20
2022-08-20T02:29:13.102Z,26.20
2022-08-20T02:30:27.391Z,26.18
2022-08-20T02:31:14.430Z,26.20
2022-08-20T02:32:32.147Z,26.18
2022-08-20T02:33:14.768Z,26.18
2022-08-20T02:34:22.258Z,26.20
2022-08-20T02:35:15.111Z,26.18
2022-08-20T02:36:14.267Z,26.20
2022-08-20T02:37:14.431Z,26.21
2022-08-20T02:38:14.612Z,26.18
2022-08-20T02:39:14.781Z,26.18
2022-08-20T02:40:15.052Z,26.15
2022-08-20T02:41:15.149Z,26.18
2022-08-20T02:42:15.309Z,26.17
2022-08-20T02:43:15.492Z,26.18
2022-08-20T02:44:15.664Z,26.20
2022-08-20T02:45:18.895Z,26.17
2022-08-20T02:46:16.023Z,26.17
2022-08-20T02:47:16.172Z,26.17
2022-08-20T02:48:16.365Z,26.18
2022-08-20T02:49:16.534Z,26.17
2022-08-20T02:50:16.701Z,26.18
2022-08-20T02:51:16.875Z,26.17
2022-08-20T02:52:18.042Z,26.17
2022-08-20T02:53:17.208Z,26.15
2022-08-20T02:54:17.366Z,26.17
2022-08-20T02:55:18.894Z,26.15
2022-08-20T02:56:18.716Z,26.17
2022-08-20T02:57:17.886Z,26.17
2022-08-20T02:58:18.076Z,26.13
2022-08-20T02:59:19.775Z,26.17
2022-08-20T03:00:18.429Z,26.17
2022-08-20T03:01:18.621Z,26.18
2022-08-20T03:02:18.793Z,26.17
2022-08-20T03:03:18.949Z,26.15
2022-08-20T03:04:19.120Z,26.15
2022-08-20T03:05:20.310Z,26.17
2022-08-20T03:06:19.480Z,26.15
2022-08-20T03:07:19.660Z,26.15
2022-08-20T03:08:19.861Z,26.15
2022-08-20T03:09:20.002Z,26.15
2022-08-20T03:10:20.172Z,26.13
2022-08-20T03:11:20.342Z,26.17
2022-08-20T03:12:20.512Z,26.18
2022-08-20T03:13:20.703Z,26.17
2022-08-20T03:14:20.838Z,26.15
2022-08-20T03:15:21.002Z,26.15
2022-08-20T03:16:21.173Z,26.13
2022-08-20T03:17:21.344Z,26.15
2022-08-20T03:18:21.530Z,26.13
2022-08-20T03:19:21.688Z,26.15
2022-08-20T03:20:23.869Z,26.18
2022-08-20T03:21:22.001Z,26.15
2022-08-20T03:22:22.176Z,26.17
2022-08-20T03:23:22.337Z,26.15
2022-08-20T03:24:22.546Z,26.14
2022-08-20T03:25:22.687Z,26.15
2022-08-20T03:26:22.867Z,26.13
2022-08-20T03:27:23.049Z,26.15
2022-08-20T03:28:23.210Z,26.15
2022-08-20T03:29:23.411Z,26.18
2022-08-20T03:30:23.559Z,26.13
2022-08-20T03:31:23.728Z,26.13
2022-08-20T03:32:23.898Z,26.15
2022-08-20T03:33:24.062Z,26.14
2022-08-20T03:34:24.267Z,26.13
2022-08-20T03:35:24.415Z,26.11
2022-08-20T03:36:28.654Z,26.14
2022-08-20T03:37:24.773Z,26.15
2022-08-20T03:38:32.675Z,26.11
2022-08-20T03:39:26.132Z,26.08
2022-08-20T03:40:25.312Z,26.11
2022-08-20T03:41:25.455Z,26.09
2022-08-20T03:42:25.639Z,26.06
2022-08-20T03:43:25.824Z,26.05
2022-08-20T03:44:25.995Z,26.08
2022-08-20T03:45:26.187Z,26.06
2022-08-20T03:46:26.338Z,26.05
2022-08-20T03:47:26.521Z,26.05
2022-08-20T03:48:26.697Z,26.03
2022-08-20T03:49:26.886Z,26.03
2022-08-20T03:50:27.079Z,26.05
2022-08-20T03:51:27.238Z,26.03
2022-08-20T03:52:27.409Z,26.03
2022-08-20T03:53:27.589Z,26.06
2022-08-20T03:54:31.743Z,26.03
2022-08-20T03:55:27.974Z,26.03
2022-08-20T03:56:28.149Z,26.02
2022-08-20T03:57:28.321Z,26.03
2022-08-20T03:58:29.978Z,26.05
2022-08-20T03:59:29.661Z,26.05
2022-08-20T04:00:28.880Z,26.05
2022-08-20T04:01:37.203Z,26.05
2022-08-20T04:02:30.173Z,26.03
2022-08-20T04:03:29.379Z,26.05
2022-08-20T04:04:29.533Z,26.05
2022-08-20T04:05:29.734Z,26.02
2022-08-20T04:06:29.843Z,26.02
2022-08-20T04:07:30.026Z,26.03
2022-08-20T04:08:30.206Z,26.02
2022-08-20T04:09:30.411Z,26.05
2022-08-20T04:10:30.584Z,26.05
2022-08-20T04:11:30.759Z,26.03
2022-08-20T04:12:30.946Z,26.03
2022-08-20T04:13:31.127Z,26.02
2022-08-20T04:14:31.321Z,26.02
2022-08-20T04:15:31.493Z,25.99
2022-08-20T04:16:31.657Z,26.01
2022-08-20T04:17:31.824Z,26.01
2022-08-20T04:18:31.998Z,25.99
2022-08-20T04:19:34.304Z,25.98
2022-08-20T04:20:32.369Z,26.01
2022-08-20T04:21:33.379Z,25.99
2022-08-20T04:22:32.741Z,25.98
2022-08-20T04:23:32.921Z,25.96
2022-08-20T04:24:33.127Z,25.99
2022-08-20T04:25:36.056Z,25.99
2022-08-20T04:26:33.450Z,25.96
2022-08-20T04:27:33.631Z,25.98
2022-08-20T04:28:33.815Z,25.98
2022-08-20T04:29:35.514Z,25.96
2022-08-20T04:30:34.171Z,25.99
2022-08-20T04:31:34.345Z,25.99
2022-08-20T04:32:34.534Z,25.99
2022-08-20T04:33:35.407Z,25.96
2022-08-20T04:34:34.899Z,25.98
2022-08-20T04:35:35.056Z,25.96
2022-08-20T04:36:35.249Z,25.96
2022-08-20T04:37:35.421Z,25.98
2022-08-20T04:38:47.892Z,25.95
2022-08-20T04:39:36.843Z,25.98
2022-08-20T04:40:35.937Z,25.96
2022-08-20T04:41:36.118Z,25.96
2022-08-20T04:42:36.302Z,25.95
2022-08-20T04:43:36.488Z,25.96
2022-08-20T04:44:36.639Z,25.95
2022-08-20T04:45:36.842Z,25.96
2022-08-20T04:46:36.990Z,25.96
2022-08-20T04:47:37.168Z,25.96
2022-08-20T04:48:37.351Z,25.95
2022-08-20T04:49:37.521Z,25.93
2022-08-20T04:50:37.721Z,25.95
2022-08-20T04:51:37.871Z,25.91
2022-08-20T04:52:38.051Z,25.95
2022-08-20T04:53:38.211Z,25.95
2022-08-20T04:54:38.401Z,25.96
2022-08-20T04:55:38.581Z,25.96
2022-08-20T04:56:38.766Z,25.98
2022-08-20T04:57:38.953Z,25.95
2022-08-20T04:58:39.120Z,25.99
2022-08-20T04:59:39.287Z,25.99
2022-08-20T05:00:39.449Z,25.99
2022-08-20T05:01:39.679Z,25.99
2022-08-20T05:02:39.776Z,26.01
2022-08-20T05:03:39.937Z,25.98
2022-08-20T05:04:40.113Z,25.98
2022-08-20T05:05:40.277Z,26.02
2022-08-20T05:06:40.473Z,26.01
2022-08-20T05:07:40.628Z,25.98
2022-08-20T05:08:40.788Z,25.99
2022-08-20T05:09:44.131Z,26.01
2022-08-20T05:10:41.120Z,26.01
2022-08-20T05:11:41.301Z,26.03
2022-08-20T05:12:41.464Z,26.01
2022-08-20T05:13:41.631Z,26.01
2022-08-20T05:14:41.800Z,26.03
2022-08-20T05:15:41.965Z,26.05
2022-08-20T05:16:42.142Z,26.05
2022-08-20T05:17:42.307Z,26.05
2022-08-20T05:18:42.471Z,26.02
2022-08-20T05:19:42.632Z,26.03
2022-08-20T05:20:42.825Z,26.03
2022-08-20T05:21:43.000Z,26.05
2022-08-20T05:22:43.165Z,26.01
2022-08-20T05:23:43.331Z,26.06
2022-08-20T05:24:43.492Z,26.03
2022-08-20T05:25:43.664Z,26.03
2022-08-20T05:26:43.856Z,25.99
2022-08-20T05:27:47.737Z,25.99
2022-08-20T05:28:57.778Z,26.02
2022-08-20T05:29:45.360Z,26.03
2022-08-20T05:30:44.528Z,26.05
2022-08-20T05:31:44.712Z,26.03
2022-08-20T05:32:44.918Z,26.09
2022-08-20T05:33:45.029Z,26.09
2022-08-20T05:34:45.215Z,26.09
2022-08-20T05:35:45.405Z,26.08
2022-08-20T05:36:48.109Z,26.08
2022-08-20T05:37:45.727Z,26.13
2022-08-20T05:38:49.778Z,26.11
2022-08-20T05:39:46.146Z,26.13
2022-08-20T05:40:46.252Z,26.14
2022-08-20T05:41:46.471Z,26.15
2022-08-20T05:42:46.591Z,26.15
2022-08-20T05:43:46.760Z,26.14
2022-08-20T05:44:46.924Z,26.15
2022-08-20T05:45:47.092Z,26.18
2022-08-20T05:46:47.274Z,26.21
2022-08-20T05:47:47.443Z,26.20
2022-08-20T05:48:48.594Z,26.18
2022-08-20T05:49:47.773Z,26.21
2022-08-20T05:50:47.935Z,26.20
2022-08-20T05:51:48.115Z,26.23
2022-08-20T05:52:48.274Z,26.23
2022-08-20T05:53:48.437Z,26.24
2022-08-20T05:54:48.615Z,26.21
2022-08-20T05:55:48.777Z,26.23
2022-08-20T05:56:48.962Z,26.23
2022-08-20T05:57:49.107Z,26.25
2022-08-20T05:58:49.268Z,26.27
2022-08-20T05:59:49.450Z,26.25
2022-08-20T06:00:49.630Z,26.24
2022-08-20T06:01:49.793Z,26.23
2022-08-20T06:02:49.930Z,26.25
2022-08-20T06:03:50.105Z,26.25
2022-08-20T06:04:56.070Z,26.24
2022-08-20T06:05:51.440Z,26.27
2022-08-20T06:06:50.631Z,26.30
2022-08-20T06:07:50.798Z,26.25
2022-08-20T06:08:50.975Z,26.28
2022-08-20T06:09:51.121Z,26.30
2022-08-20T06:10:51.283Z,26.28
2022-08-20T06:11:51.453Z,26.30
2022-08-20T06:12:51.610Z,26.28
2022-08-20T06:13:51.794Z,26.32
2022-08-20T06:14:51.984Z,26.30
2022-08-20T06:15:52.174Z,26.30
2022-08-20T06:16:57.758Z,26.30
2022-08-20T06:17:58.214Z,26.33
2022-08-20T06:18:53.655Z,26.32
2022-08-20T06:19:52.816Z,26.35
2022-08-20T06:20:52.980Z,26.30
2022-08-20T06:21:53.166Z,26.32
2022-08-20T06:22:53.327Z,26.32
2022-08-20T06:23:57.363Z,26.33
2022-08-20T06:24:54.666Z,26.33
2022-08-20T06:25:53.844Z,26.32
2022-08-20T06:26:54.021Z,26.36
2022-08-20T06:27:54.208Z,26.33
2022-08-20T06:28:54.350Z,26.32
2022-08-20T06:29:54.530Z,26.38
2022-08-20T06:30:54.690Z,26.33
2022-08-20T06:31:54.877Z,26.38
2022-08-20T06:32:55.049Z,26.36
2022-08-20T06:33:55.212Z,26.38
2022-08-20T06:34:55.380Z,26.38
2022-08-20T06:35:55.551Z,26.36
2022-08-20T06:36:55.719Z,26.35
2022-08-20T06:37:56.031Z,26.39
2022-08-20T06:38:56.044Z,26.40
2022-08-20T06:39:56.272Z,26.38
2022-08-20T06:40:56.383Z,26.39
2022-08-20T06:41:56.554Z,26.39
2022-08-20T06:42:56.744Z,26.39
2022-08-20T06:43:56.912Z,26.39
2022-08-20T06:44:57.066Z,26.40
2022-08-20T06:45:57.236Z,26.40
2022-08-20T06:46:57.405Z,26.40
2022-08-20T06:47:57.731Z,26.40
2022-08-20T06:48:57.759Z,26.38
2022-08-20T06:49:57.917Z,26.40
2022-08-20T06:50:58.079Z,26.39
2022-08-20T06:51:58.248Z,26.42
2022-08-20T06:52:58.432Z,26.39
2022-08-20T06:53:58.590Z,26.42
2022-08-20T06:54:58.763Z,26.40
2022-08-20T06:55:58.993Z,26.40
2022-08-20T06:56:59.102Z,26.42
2022-08-20T06:57:59.292Z,26.39
2022-08-20T06:58:59.431Z,26.43
2022-08-20T06:59:59.589Z,26.42
2022-08-20T07:01:03.328Z,26.43
2022-08-20T07:02:00.922Z,26.46
2022-08-20T07:03:00.156Z,26.45
2022-08-20T07:04:00.272Z,26.45
2022-08-20T07:05:00.442Z,26.46
2022-08-20T07:06:00.611Z,26.43
2022-08-20T07:07:00.794Z,26.43
2022-08-20T07:08:00.954Z,26.45
2022-08-20T07:09:01.125Z,26.46
2022-08-20T07:10:01.290Z,26.45
2022-08-20T07:11:01.449Z,26.48
2022-08-20T07:12:01.638Z,26.48
2022-08-20T07:13:01.798Z,26.50
2022-08-20T07:14:01.966Z,26.48
2022-08-20T07:15:02.126Z,26.46
2022-08-20T07:16:02.318Z,26.48
2022-08-20T07:17:02.489Z,26.46
2022-08-20T07:18:02.658Z,26.46
2022-08-20T07:19:02.829Z,26.50
2022-08-20T07:20:02.990Z,26.46
2022-08-20T07:21:03.169Z,26.48
2022-08-20T07:22:03.339Z,26.48
2022-08-20T07:23:03.509Z,26.51
2022-08-20T07:24:03.672Z,26.48
2022-08-20T07:25:03.841Z,26.51
2022-08-20T07:26:04.021Z,26.51
2022-08-20T07:27:04.212Z,26.51
2022-08-20T07:28:04.372Z,26.51
2022-08-20T07:29:04.543Z,26.50
2022-08-20T07:30:04.719Z,26.51
2022-08-20T07:31:13.702Z,26.50
2022-08-20T07:32:06.043Z,26.51
2022-08-20T07:33:06.815Z,26.52
2022-08-20T07:34:05.405Z,26.51
2022-08-20T07:35:05.543Z,26.54
2022-08-20T07:36:05.715Z,26.52
2022-08-20T07:37:05.882Z,26.55
2022-08-20T07:38:06.045Z,26.52
2022-08-20T07:39:06.306Z,26.55
2022-08-20T07:40:06.395Z,26.54
2022-08-20T07:41:06.549Z,26.58
2022-08-20T07:42:06.732Z,26.57
2022-08-20T07:43:06.909Z,26.55
2022-08-20T07:44:07.058Z,26.55
2022-08-20T07:45:07.218Z,26.57
2022-08-20T07:46:07.379Z,26.58
2022-08-20T07:47:07.539Z,26.57
2022-08-20T07:48:07.737Z,26.60
2022-08-20T07:49:07.890Z,26.57
2022-08-20T07:50:08.071Z,26.61
2022-08-20T07:51:08.233Z,26.60
2022-08-20T07:52:08.401Z,26.61
2022-08-20T07:53:08.572Z,26.61
2022-08-20T07:54:08.756Z,26.64
2022-08-20T07:55:08.912Z,26.64
2022-08-20T07:56:09.096Z,26.64
2022-08-20T07:57:09.263Z,26.65
2022-08-20T07:58:09.429Z,26.64
2022-08-20T07:59:09.584Z,26.65
2022-08-20T08:00:09.755Z,26.67
2022-08-20T08:01:09.964Z,26.70
2022-08-20T08:02:10.148Z,26.72
2022-08-20T08:03:11.324Z,26.72
2022-08-20T08:04:10.522Z,26.70
2022-08-20T08:05:10.576Z,26.72
2022-08-20T08:06:10.748Z,26.70
2022-08-20T08:07:10.897Z,26.73
2022-08-20T08:08:11.073Z,26.73
2022-08-20T08:09:11.242Z,26.72
2022-08-20T08:10:11.397Z,26.74
2022-08-20T08:11:12.111Z,26.73
2022-08-20T08:12:11.739Z,26.76
2022-08-20T08:13:11.919Z,26.76
2022-08-20T08:14:12.078Z,26.76
2022-08-20T08:15:12.261Z,26.77
2022-08-20T08:16:12.431Z,26.77
2022-08-20T08:17:12.603Z,26.80
2022-08-20T08:18:12.761Z,26.80
2022-08-20T08:19:12.960Z,26.79
2022-08-20T08:20:13.122Z,26.77
2022-08-20T08:21:13.295Z,26.82
2022-08-20T08:22:13.453Z,26.82
2022-08-20T08:23:24.509Z,26.82
2022-08-20T08:24:19.981Z,26.83
2022-08-20T08:25:14.958Z,26.82
2022-08-20T08:26:15.840Z,26.85
2022-08-20T08:27:14.294Z,26.85
2022-08-20T08:28:14.465Z,26.88
2022-08-20T08:29:14.644Z,26.87
2022-08-20T08:30:14.806Z,26.88
2022-08-20T08:31:14.976Z,26.88
2022-08-20T08:32:15.167Z,26.85
2022-08-20T08:33:15.297Z,26.87
2022-08-20T08:34:15.498Z,26.87
2022-08-20T08:35:15.647Z,26.87
2022-08-20T08:36:15.822Z,26.88
2022-08-20T08:37:15.989Z,26.88
2022-08-20T08:38:16.152Z,26.92
2022-08-20T08:39:16.331Z,26.92
2022-08-20T08:40:16.517Z,26.94
2022-08-20T08:41:16.668Z,26.95
2022-08-20T08:42:16.835Z,26.94
2022-08-20T08:43:17.370Z,26.97
2022-08-20T08:44:17.219Z,26.95
2022-08-20T08:45:17.344Z,26.98
2022-08-20T08:46:17.511Z,27.03
2022-08-20T08:47:17.672Z,27.05
2022-08-20T08:48:18.684Z,27.07
2022-08-20T08:49:18.027Z,27.07
2022-08-20T08:50:33.174Z,27.08
2022-08-20T08:51:19.363Z,27.11
2022-08-20T08:52:18.543Z,27.12
2022-08-20T08:53:18.706Z,27.17
2022-08-20T08:54:18.875Z,27.15
2022-08-20T08:55:19.066Z,27.18
2022-08-20T08:56:19.217Z,27.21
2022-08-20T08:57:19.378Z,27.21
2022-08-20T08:58:19.549Z,27.23
2022-08-20T08:59:19.733Z,27.25
2022-08-20T09:00:19.886Z,27.26
2022-08-20T09:01:54.818Z,27.25
2022-08-20T09:02:21.279Z,27.27
2022-08-20T09:03:20.407Z,27.27
2022-08-20T09:04:21.807Z,27.32
2022-08-20T09:05:20.742Z,27.30
2022-08-20T09:06:20.920Z,27.35
2022-08-20T09:07:21.095Z,27.33
2022-08-20T09:08:21.262Z,27.39
2022-08-20T09:09:21.421Z,27.36
2022-08-20T09:10:23.137Z,27.42
2022-08-20T09:11:21.751Z,27.39
2022-08-20T09:12:21.957Z,27.44
2022-08-20T09:13:22.113Z,27.42
2022-08-20T09:14:22.291Z,27.47
2022-08-20T09:15:22.493Z,27.47
2022-08-20T09:16:22.653Z,27.49
2022-08-20T09:17:22.824Z,27.47
2022-08-20T09:18:22.994Z,27.52
2022-08-20T09:19:23.154Z,27.52
2022-08-20T09:20:25.923Z,27.54
2022-08-20T09:21:23.484Z,27.55
2022-08-20T09:22:23.655Z,27.55
2022-08-20T09:23:23.817Z,27.57
2022-08-20T09:24:23.992Z,27.58
2022-08-20T09:25:24.171Z,27.60
2022-08-20T09:26:24.353Z,27.60
2022-08-20T09:27:24.509Z,27.60
2022-08-20T09:28:24.693Z,27.62
2022-08-20T09:29:25.858Z,27.63
2022-08-20T09:30:25.039Z,27.67
2022-08-20T09:31:25.189Z,27.66
2022-08-20T09:32:26.086Z,27.67
2022-08-20T09:33:25.529Z,27.69
2022-08-20T09:34:25.709Z,27.69
2022-08-20T09:35:25.957Z,27.70
2022-08-20T09:36:32.036Z,27.73
2022-08-20T09:37:27.235Z,27.74
2022-08-20T09:38:26.414Z,27.74
2022-08-20T09:39:26.571Z,27.73
2022-08-20T09:40:26.798Z,27.74
2022-08-20T09:41:26.893Z,27.73
2022-08-20T09:42:27.083Z,27.73
2022-08-20T09:43:27.268Z,27.76
2022-08-20T09:44:27.453Z,27.79
2022-08-20T09:45:27.662Z,27.78
2022-08-20T09:46:27.854Z,27.81
2022-08-20T09:47:28.004Z,27.78
2022-08-20T09:48:31.871Z,27.79
2022-08-20T09:49:28.340Z,27.78
2022-08-20T09:50:28.517Z,27.81
2022-08-20T09:51:28.697Z,27.82
2022-08-20T09:52:28.887Z,27.81
2022-08-20T09:53:29.093Z,27.82
2022-08-20T09:54:29.239Z,27.82
2022-08-20T09:55:29.436Z,27.84
2022-08-20T09:56:29.599Z,27.86
2022-08-20T09:57:29.789Z,27.88
2022-08-20T09:58:29.971Z,27.88
2022-08-20T09:59:30.181Z,27.88
2022-08-20T10:00:30.341Z,27.89
2022-08-20T10:01:30.533Z,27.89
2022-08-20T10:02:30.682Z,27.89
2022-08-20T10:03:30.872Z,27.91
2022-08-20T10:04:31.063Z,27.91
2022-08-20T10:05:31.203Z,27.92
2022-08-20T10:06:34.588Z,27.91
2022-08-20T10:07:32.553Z,27.94
2022-08-20T10:08:31.693Z,27.92
2022-08-20T10:09:31.914Z,27.95
2022-08-20T10:10:32.038Z,27.95
2022-08-20T10:11:32.194Z,27.99
2022-08-20T10:12:32.356Z,27.99
2022-08-20T10:13:32.553Z,28.00
2022-08-20T10:14:32.716Z,27.97
2022-08-20T10:15:32.907Z,28.01
2022-08-20T10:16:33.056Z,27.97
2022-08-20T10:17:33.243Z,27.95
2022-08-20T10:18:33.448Z,27.94
2022-08-20T10:19:33.607Z,27.94
2022-08-20T10:20:33.788Z,27.94
2022-08-20T10:21:38.483Z,27.95
2022-08-20T10:22:35.159Z,27.94
2022-08-20T10:23:34.354Z,27.94
2022-08-20T10:24:34.510Z,27.94
2022-08-20T10:25:34.700Z,27.94
2022-08-20T10:26:34.881Z,27.95
2022-08-20T10:27:35.071Z,27.95
2022-08-20T10:28:35.260Z,27.97
2022-08-20T10:29:35.399Z,27.95
2022-08-20T10:30:35.580Z,27.95
2022-08-20T10:31:35.761Z,27.95
2022-08-20T10:32:35.934Z,28.00
2022-08-20T10:33:36.150Z,27.99
2022-08-20T10:34:36.316Z,27.99
2022-08-20T10:35:36.474Z,27.99
2022-08-20T10:36:36.654Z,28.03
2022-08-20T10:37:36.847Z,28.00
2022-08-20T10:38:37.024Z,27.99
2022-08-20T10:39:37.258Z,27.99
2022-08-20T10:40:37.385Z,28.00
2022-08-20T10:41:39.207Z,27.99
2022-08-20T10:42:42.303Z,27.99
2022-08-20T10:43:38.958Z,27.99
2022-08-20T10:44:38.117Z,27.99
2022-08-20T10:45:38.288Z,28.00
2022-08-20T10:46:38.448Z,27.99
2022-08-20T10:47:38.637Z,27.97
2022-08-20T10:48:38.823Z,27.97
2022-08-20T10:49:39.029Z,27.99
2022-08-20T10:50:39.191Z,27.99
2022-08-20T10:51:39.360Z,27.97
2022-08-20T10:52:39.542Z,27.97
2022-08-20T10:53:39.740Z,27.97
2022-08-20T10:54:39.920Z,28.00
2022-08-20T10:55:40.082Z,27.95
2022-08-20T10:56:40.274Z,27.95
2022-08-20T10:57:40.452Z,27.99
2022-08-20T10:58:41.389Z,27.94
2022-08-20T10:59:40.822Z,27.95
2022-08-20T11:00:40.967Z,27.97
2022-08-20T11:01:41.285Z,27.95
2022-08-20T11:02:41.305Z,27.95
2022-08-20T11:03:41.503Z,27.94
2022-08-20T11:04:41.635Z,27.92
2022-08-20T11:05:41.846Z,27.92
2022-08-20T11:06:42.009Z,27.94
2022-08-20T11:07:55.030Z,27.94
2022-08-20T11:08:43.378Z,27.91
2022-08-20T11:09:42.549Z,27.92
2022-08-20T11:10:42.728Z,27.89
2022-08-20T11:11:42.928Z,27.88
2022-08-20T11:12:44.727Z,27.89
2022-08-20T11:13:43.366Z,27.89
2022-08-20T11:14:43.468Z,27.88
2022-08-20T11:15:43.649Z,27.89
2022-08-20T11:16:43.860Z,27.85
2022-08-20T11:17:44.014Z,27.85
2022-08-20T11:18:46.985Z,27.88
2022-08-20T11:19:44.389Z,27.86
2022-08-20T11:20:44.563Z,27.84
2022-08-20T11:21:44.727Z,27.84
2022-08-20T11:22:44.883Z,27.84
2022-08-20T11:23:45.080Z,27.84
2022-08-20T11:24:46.063Z,27.81
2022-08-20T11:25:45.444Z,27.82
2022-08-20T11:26:45.655Z,27.78
2022-08-20T11:27:45.799Z,27.78
2022-08-20T11:28:45.984Z,27.76
2022-08-20T11:29:46.174Z,27.74
2022-08-20T11:30:46.345Z,27.74
2022-08-20T11:31:46.545Z,27.73
2022-08-20T11:32:46.717Z,27.74
2022-08-20T11:33:46.905Z,27.71
2022-08-20T11:34:47.089Z,27.70
2022-08-20T11:35:48.305Z,27.71
2022-08-20T11:36:47.424Z,27.69
2022-08-20T11:37:47.560Z,27.70
2022-08-20T11:38:47.749Z,27.67
2022-08-20T11:39:48.009Z,27.69
2022-08-20T11:40:48.121Z,27.66
2022-08-20T11:41:48.282Z,27.66
2022-08-20T11:43:13.196Z,27.66
2022-08-20T11:44:10.470Z,27.62
2022-08-20T11:44:49.799Z,27.63
2022-08-20T11:45:48.958Z,27.63
2022-08-20T11:46:49.101Z,27.62
2022-08-20T11:47:49.388Z,27.57
2022-08-20T11:48:49.433Z,27.60
2022-08-20T11:49:49.663Z,27.60
2022-08-20T11:50:49.782Z,27.58
2022-08-20T11:51:50.332Z,27.57
2022-08-20T11:52:50.129Z,27.57
2022-08-20T11:53:50.288Z,27.60
2022-08-20T11:54:54.681Z,27.57
2022-08-20T11:55:50.655Z,27.57
2022-08-20T11:56:50.846Z,27.55
2022-08-20T11:57:51.054Z,27.55
2022-08-20T11:58:51.205Z,27.57
2022-08-20T11:59:51.350Z,27.57
2022-08-20T12:00:51.537Z,27.58
2022-08-20T12:02:02.837Z,27.55
2022-08-20T12:02:53.033Z,27.55
2022-08-20T12:03:52.069Z,27.55
2022-08-20T12:04:52.249Z,27.55
2022-08-20T12:05:52.429Z,27.55
2022-08-20T12:06:52.588Z,27.55
2022-08-20T12:07:52.759Z,27.55
2022-08-20T12:08:52.912Z,27.54
2022-08-20T12:09:53.062Z,27.57
2022-08-20T12:10:53.242Z,27.55
2022-08-20T12:11:53.430Z,27.58
2022-08-20T12:12:53.570Z,27.54
2022-08-20T12:13:53.761Z,27.57
2022-08-20T12:14:53.965Z,27.52
2022-08-20T12:15:54.112Z,27.57
2022-08-20T12:16:54.314Z,27.55
2022-08-20T12:17:54.479Z,27.57
2022-08-20T12:18:54.652Z,27.58
2022-08-20T12:19:54.854Z,27.58
2022-08-20T12:20:55.005Z,27.58
2022-08-20T12:21:55.216Z,27.55
2022-08-20T12:22:55.573Z,27.57
2022-08-20T12:23:55.548Z,27.55
2022-08-20T12:24:55.680Z,27.58
2022-08-20T12:25:55.866Z,27.58
2022-08-20T12:26:56.041Z,27.58
2022-08-20T12:27:56.238Z,27.60
2022-08-20T12:28:56.378Z,27.58
2022-08-20T12:29:56.575Z,27.54
2022-08-20T12:30:56.753Z,27.60
2022-08-20T12:31:56.955Z,27.58
2022-08-20T12:32:57.228Z,27.60
2022-08-20T12:33:57.268Z,27.57
2022-08-20T12:34:57.451Z,27.58
2022-08-20T12:35:57.643Z,27.57
2022-08-20T12:36:57.823Z,27.57
2022-08-20T12:37:57.967Z,27.58
2022-08-20T12:38:58.142Z,27.57
2022-08-20T12:39:58.410Z,27.58
2022-08-20T12:40:58.502Z,27.58
2022-08-20T12:41:58.703Z,27.55
2022-08-20T12:42:58.845Z,27.57
2022-08-20T12:43:59.033Z,27.55
2022-08-20T12:44:59.185Z,27.60
2022-08-20T12:45:59.375Z,27.57
2022-08-20T12:46:59.592Z,27.57
2022-08-20T12:47:59.715Z,27.57
2022-08-20T12:48:59.906Z,27.57
2022-08-20T12:50:00.131Z,27.52
2022-08-20T12:51:00.279Z,27.52
2022-08-20T12:52:00.472Z,27.52
2022-08-20T12:53:00.636Z,27.52
2022-08-20T12:54:00.796Z,27.54
2022-08-20T12:55:00.956Z,27.52